createdAt,value
2023-09-02T00:01:15.092Z,35.40
2023-09-02T00:06:16.806Z,33.28
2023-09-02T00:11:18.408Z,33.95
2023-09-02T00:16:20.357Z,37.53
2023-09-02T00:21:22.087Z,41.05
2023-09-02T00:26:23.697Z,36.22
2023-09-02T00:31:25.595Z,36.75
2023-09-02T00:36:29.093Z,36.15
2023-09-02T00:41:35.584Z,37.00
2023-09-02T00:46:37.328Z,31.10
2023-09-02T00:51:39.530Z,28.65
2023-09-02T00:56:41.774Z,29.23
2023-09-02T01:01:46.549Z,36.10
2023-09-02T01:06:48.302Z,42.25
2023-09-02T01:11:50.224Z,42.90
2023-09-02T01:16:51.948Z,40.35
2023-09-02T01:22:20.281Z,46.10
2023-09-02T01:28:05.299Z,42.17
2023-09-02T01:33:10.206Z,39.72
2023-09-02T01:38:13.136Z,41.08
2023-09-02T01:43:22.234Z,41.80
2023-09-02T01:48:27.341Z,39.47
2023-09-02T01:53:30.377Z,39.60
2023-09-02T01:58:32.112Z,39.03
2023-09-02T02:03:52.591Z,38.92
2023-09-02T02:09:04.245Z,39.10
2023-09-02T02:14:07.332Z,33.80
2023-09-02T02:19:09.387Z,33.15
2023-09-02T02:24:11.049Z,28.08
2023-09-02T02:29:12.674Z,26.95
2023-09-02T02:34:15.677Z,30.40
2023-09-02T02:39:17.987Z,26.63
2023-09-02T02:44:19.835Z,31.00
2023-09-02T02:49:21.498Z,28.90
2023-09-02T02:54:23.477Z,27.25
2023-09-02T02:59:25.544Z,25.88
2023-09-02T03:04:27.885Z,26.75
2023-09-02T03:09:29.605Z,28.10
2023-09-02T03:14:31.384Z,28.58
2023-09-02T03:19:33.154Z,28.98
2023-09-02T03:24:34.848Z,29.25
2023-09-02T03:29:36.621Z,29.70
2023-09-02T03:34:38.889Z,27.10
2023-09-02T03:39:40.771Z,29.95
2023-09-02T03:44:42.551Z,28.30
2023-09-02T03:49:44.216Z,28.33
2023-09-02T03:54:46.650Z,30.52
2023-09-02T03:59:49.855Z,30.02
2023-09-02T04:04:52.435Z,33.28
2023-09-02T04:09:56.145Z,30.05
2023-09-02T04:14:57.912Z,30.23
2023-09-02T04:20:01.617Z,31.30
2023-09-02T04:25:06.182Z,35.10
2023-09-02T04:30:10.153Z,38.15
2023-09-02T04:35:11.908Z,29.75
2023-09-02T04:40:15.360Z,25.92
2023-09-02T04:45:18.211Z,29.48
2023-09-02T04:50:21.678Z,25.40
2023-09-02T04:55:25.971Z,29.30
2023-09-02T05:00:28.197Z,26.45
2023-09-02T05:05:31.083Z,32.92
2023-09-02T05:10:32.886Z,34.28
2023-09-02T05:15:34.645Z,33.47
2023-09-02T05:20:36.457Z,41.92
2023-09-02T05:25:38.157Z,38.28
2023-09-02T05:30:39.986Z,37.38
2023-09-02T05:35:41.640Z,39.25
2023-09-02T05:40:44.002Z,39.38
2023-09-02T05:45:45.802Z,48.60
2023-09-02T05:50:47.465Z,45.05
2023-09-02T05:55:56.126Z,45.13
2023-09-02T06:01:04.702Z,43.53
2023-09-02T06:06:13.264Z,40.07
2023-09-02T06:11:16.295Z,40.75
2023-09-02T06:16:18.021Z,37.15
2023-09-02T06:21:19.660Z,38.58
2023-09-02T06:26:21.303Z,39.90
2023-09-02T06:31:23.417Z,36.00
2023-09-02T06:36:25.298Z,38.85
2023-09-02T06:41:26.929Z,37.50
2023-09-02T06:46:29.222Z,41.28
2023-09-02T06:51:31.196Z,38.30
2023-09-02T06:56:34.417Z,36.03
2023-09-02T07:01:36.036Z,35.97
2023-09-02T07:06:37.728Z,33.13
2023-09-02T07:11:39.305Z,31.60
2023-09-02T07:16:42.149Z,31.30
2023-09-02T07:21:44.355Z,34.00
2023-09-02T07:26:48.469Z,32.03
2023-09-02T07:31:50.110Z,34.63
2023-09-02T07:36:51.872Z,32.90
2023-09-02T07:41:53.611Z,32.45
2023-09-02T07:46:55.324Z,31.75
2023-09-02T07:51:57.406Z,28.77
2023-09-02T07:56:59.217Z,30.27
2023-09-02T08:02:00.869Z,28.88
2023-09-02T08:07:02.494Z,27.17
2023-09-02T08:12:04.624Z,27.02
2023-09-02T08:17:06.744Z,27.52
2023-09-02T08:22:08.426Z,25.58
2023-09-02T08:27:10.219Z,24.48
2023-09-02T08:32:11.848Z,24.67
2023-09-02T08:37:13.938Z,28.83
2023-09-02T08:42:21.097Z,22.80
2023-09-02T08:47:28.679Z,24.98
2023-09-02T08:52:30.533Z,32.05
2023-09-02T08:57:33.830Z,28.97
2023-09-02T09:02:39.274Z,27.45
2023-09-02T09:07:41.992Z,25.27
2023-09-02T09:12:45.988Z,25.50
2023-09-02T09:17:48.715Z,26.55
2023-09-02T09:22:52.167Z,30.45
2023-09-02T09:27:53.962Z,30.80
2023-09-02T09:33:02.654Z,30.13
2023-09-02T09:38:06.064Z,29.17
2023-09-02T09:43:19.291Z,33.53
2023-09-02T09:48:21.423Z,30.65
2023-09-02T09:53:24.799Z,33.05
2023-09-02T09:58:26.453Z,28.73
2023-09-02T10:03:34.472Z,32.10
2023-09-02T10:08:55.623Z,28.10
2023-09-02T10:13:58.606Z,25.95
2023-09-02T10:19:00.986Z,21.88
2023-09-02T10:24:08.379Z,24.45
2023-09-02T10:29:13.898Z,24.73
2023-09-02T10:34:27.215Z,20.00
2023-09-02T10:40:05.775Z,20.52
2023-09-02T10:45:08.049Z,19.33
2023-09-02T10:50:11.029Z,20.33
2023-09-02T10:55:13.110Z,23.88
2023-09-02T11:00:18.299Z,17.23
2023-09-02T11:05:21.245Z,14.23
2023-09-02T11:10:43.406Z,15.13
2023-09-02T11:16:12.069Z,12.68
2023-09-02T11:21:47.771Z,14.98
2023-09-02T11:26:59.281Z,15.90
2023-09-02T11:32:03.281Z,12.48
2023-09-02T11:37:06.198Z,12.05
2023-09-02T11:42:08.682Z,11.43
2023-09-02T11:47:15.357Z,12.15
2023-09-02T11:52:22.168Z,10.60
2023-09-02T11:57:23.762Z,7.95
2023-09-02T12:02:26.566Z,10.90
2023-09-02T12:07:34.653Z,8.73
2023-09-02T12:12:43.975Z,10.63
2023-09-02T12:17:48.490Z,7.55
2023-09-02T12:22:50.763Z,6.63
2023-09-02T12:27:53.345Z,10.45
2023-09-02T12:32:58.506Z,8.30
2023-09-02T12:38:10.148Z,10.10
2023-09-02T12:43:23.233Z,9.90
2023-09-02T12:48:25.779Z,9.65
2023-09-02T12:53:28.145Z,7.05
2023-09-02T12:58:29.784Z,10.57
2023-09-02T13:03:31.510Z,11.20
2023-09-02T13:08:33.571Z,11.35
2023-09-02T13:13:35.680Z,10.93
2023-09-02T13:18:37.583Z,9.48
2023-09-02T13:23:39.659Z,12.20
2023-09-02T13:28:41.490Z,10.65
2023-09-02T13:33:43.790Z,12.50
2023-09-02T13:38:45.624Z,10.50
2023-09-02T13:43:47.393Z,7.22
2023-09-02T13:48:49.144Z,11.73
2023-09-02T13:53:50.864Z,10.35
2023-09-02T13:58:52.646Z,12.40
2023-09-02T14:03:54.488Z,9.35
2023-09-02T14:09:00.396Z,9.68
2023-09-02T14:14:02.131Z,5.97
2023-09-02T14:19:03.788Z,11.35
2023-09-02T14:24:05.915Z,10.35
2023-09-02T14:29:07.542Z,10.07
2023-09-02T14:34:12.407Z,9.75
2023-09-02T14:39:15.543Z,10.95
2023-09-02T14:44:20.594Z,14.63
2023-09-02T14:49:22.338Z,7.97
2023-09-02T14:54:24.074Z,12.10
2023-09-02T14:59:28.788Z,9.52
2023-09-02T15:04:31.248Z,11.73
2023-09-02T15:09:33.058Z,11.25
2023-09-02T15:14:35.669Z,15.85
2023-09-02T15:19:39.270Z,14.45
2023-09-02T15:24:40.962Z,15.80
2023-09-02T15:29:53.004Z,13.52
2023-09-02T15:34:56.881Z,11.80
2023-09-02T15:40:04.104Z,9.80
2023-09-02T15:45:06.475Z,7.93
2023-09-02T15:50:08.520Z,9.75
2023-09-02T15:55:10.221Z,12.55
2023-09-02T16:00:12.162Z,17.58
2023-09-02T16:05:16.563Z,12.13
2023-09-02T16:10:18.478Z,11.82
2023-09-02T16:15:22.593Z,13.00
2023-09-02T16:20:24.361Z,16.63
2023-09-02T16:25:26.113Z,10.80
2023-09-02T16:30:27.825Z,11.02
2023-09-02T16:35:29.527Z,12.50
2023-09-02T16:40:31.176Z,11.15
2023-09-02T16:45:32.839Z,10.10
2023-09-02T16:50:34.599Z,9.43
2023-09-02T16:55:36.295Z,13.13
2023-09-02T17:00:38.093Z,13.00
2023-09-02T17:05:45.051Z,11.32
2023-09-02T17:10:46.732Z,11.20
2023-09-02T17:15:48.894Z,8.95
2023-09-02T17:20:50.860Z,10.10
2023-09-02T17:25:52.599Z,6.43
2023-09-02T17:31:04.067Z,7.57
2023-09-02T17:36:06.458Z,7.97
2023-09-02T17:41:08.814Z,8.95
2023-09-02T17:46:10.536Z,6.88
2023-09-02T17:51:12.233Z,17.33
2023-09-02T17:56:13.968Z,6.30
2023-09-02T18:01:15.693Z,9.30
2023-09-02T18:06:17.439Z,8.48
2023-09-02T18:11:19.033Z,9.60
2023-09-02T18:16:20.679Z,5.38
2023-09-02T18:21:22.452Z,9.57
2023-09-02T18:26:24.254Z,9.25
2023-09-02T18:31:26.961Z,7.70
2023-09-02T18:36:28.657Z,6.20
2023-09-02T18:41:30.298Z,8.20
2023-09-02T18:46:32.237Z,7.05
2023-09-02T18:51:33.995Z,5.00
2023-09-02T18:56:37.676Z,9.73
2023-09-02T19:01:39.489Z,8.82
2023-09-02T19:06:43.378Z,8.13
2023-09-02T19:11:46.149Z,6.53
2023-09-02T19:16:47.838Z,7.20
2023-09-02T19:21:49.684Z,11.68
2023-09-02T19:26:51.532Z,9.40
2023-09-02T19:31:53.193Z,7.05
2023-09-02T19:36:54.841Z,6.80
2023-09-02T19:41:59.230Z,8.15
2023-09-02T19:47:01.013Z,9.38
2023-09-02T19:52:02.661Z,10.98
2023-09-02T19:57:04.504Z,7.82
2023-09-02T20:02:06.819Z,15.20
2023-09-02T20:07:08.580Z,8.15
2023-09-02T20:12:10.248Z,8.02
2023-09-02T20:17:12.121Z,7.50
2023-09-02T20:22:17.442Z,8.88
2023-09-02T20:27:19.836Z,8.05
2023-09-02T20:32:21.617Z,7.00
2023-09-02T20:37:23.486Z,9.15
2023-09-02T20:42:25.197Z,6.20
2023-09-02T20:47:26.881Z,7.70
2023-09-02T20:52:28.860Z,7.43
2023-09-02T20:57:30.615Z,11.50
2023-09-02T21:02:32.375Z,8.75
2023-09-02T21:07:34.229Z,8.32
2023-09-02T21:12:35.875Z,8.70
2023-09-02T21:17:37.608Z,8.32
2023-09-02T21:22:39.303Z,7.43
2023-09-02T21:27:40.917Z,7.03
2023-09-02T21:32:43.358Z,7.95
2023-09-02T21:37:46.528Z,8.00
2023-09-02T21:42:48.150Z,11.57
2023-09-02T21:47:49.796Z,7.90
2023-09-02T21:52:51.543Z,8.10
2023-09-02T21:57:53.222Z,8.65
2023-09-02T22:02:55.116Z,8.93
2023-09-02T22:07:56.861Z,10.95
2023-09-02T22:12:58.614Z,12.18
2023-09-02T22:18:00.354Z,15.23
2023-09-02T22:23:02.094Z,12.00
2023-09-02T22:28:03.884Z,9.82
2023-09-02T22:33:05.941Z,9.68
2023-09-02T22:38:10.316Z,12.18
2023-09-02T22:43:12.439Z,10.93
2023-09-02T22:48:17.099Z,10.18
2023-09-02T22:53:20.170Z,9.50
2023-09-02T22:58:22.283Z,9.85
2023-09-02T23:03:23.987Z,10.32
2023-09-02T23:08:25.633Z,10.18
2023-09-02T23:13:28.079Z,10.38
2023-09-02T23:18:29.823Z,10.93
2023-09-02T23:23:31.493Z,9.38
2023-09-02T23:28:33.121Z,12.05
2023-09-02T23:33:34.874Z,13.00
2023-09-02T23:38:36.633Z,12.00
2023-09-02T23:43:38.389Z,11.38
2023-09-02T23:48:42.289Z,11.57
2023-09-02T23:53:45.262Z,12.93
2023-09-02T23:58:46.883Z,12.13
